createdAt,value
2022-12-07T00:00:51.374Z,27.75
2022-12-07T00:04:01.781Z,26.77
2022-12-07T00:07:06.521Z,25.08
2022-12-07T00:10:10.766Z,24.58
2022-12-07T00:13:14.939Z,25.92
2022-12-07T00:16:22.021Z,23.55
2022-12-07T00:19:26.603Z,22.27
2022-12-07T00:22:31.148Z,18.45
2022-12-07T00:25:35.426Z,19.55
2022-12-07T00:28:42.536Z,16.77
2022-12-07T00:31:47.120Z,17.10
2022-12-07T00:34:51.805Z,16.75
2022-12-07T00:37:55.986Z,16.42
2022-12-07T00:41:04.664Z,14.82
2022-12-07T00:44:09.307Z,13.10
2022-12-07T00:47:13.778Z,13.23
2022-12-07T00:50:18.226Z,11.45
2022-12-07T00:53:22.927Z,10.63
2022-12-07T00:56:30.046Z,8.50
2022-12-07T00:59:34.385Z,7.97
2022-12-07T01:02:39.106Z,6.85
2022-12-07T01:05:56.012Z,5.35
2022-12-07T01:09:01.659Z,5.78
2022-12-07T01:12:06.482Z,6.53
2022-12-07T01:15:11.407Z,3.97
2022-12-07T01:18:15.987Z,4.13
2022-12-07T01:21:25.168Z,5.07
2022-12-07T01:24:29.879Z,3.75
2022-12-07T01:27:35.516Z,4.32
2022-12-07T01:30:40.068Z,4.60
2022-12-07T01:33:57.058Z,6.13
2022-12-07T01:37:01.560Z,3.28
2022-12-07T01:40:08.894Z,2.55
2022-12-07T01:43:19.624Z,2.63
2022-12-07T01:46:24.185Z,2.25
2022-12-07T01:49:31.281Z,2.58
2022-12-07T01:52:38.898Z,2.35
2022-12-07T01:55:48.618Z,2.50
2022-12-07T01:58:55.872Z,2.38
2022-12-07T02:02:02.989Z,2.50
2022-12-07T02:05:08.526Z,2.60
2022-12-07T02:08:14.423Z,2.60
2022-12-07T02:11:19.798Z,2.83
2022-12-07T02:14:24.602Z,2.60
2022-12-07T02:18:04.454Z,2.78
2022-12-07T02:21:27.048Z,3.00
2022-12-07T02:25:22.930Z,3.53
2022-12-07T02:29:04.159Z,3.88
2022-12-07T02:32:34.589Z,4.53
2022-12-07T02:36:00.686Z,4.15
2022-12-07T02:39:15.218Z,5.53
2022-12-07T02:42:29.898Z,6.03
2022-12-07T02:48:42.408Z,5.85
2022-12-07T02:51:47.909Z,6.95
2022-12-07T02:54:52.473Z,6.63
2022-12-07T02:57:59.621Z,7.65
2022-12-07T03:01:42.390Z,9.18
2022-12-07T03:04:56.399Z,7.28
2022-12-07T03:12:02.050Z,7.18
2022-12-07T03:15:25.096Z,8.25
2022-12-07T03:18:36.729Z,9.00
2022-12-07T03:21:56.719Z,8.48
2022-12-07T03:25:09.519Z,9.05
2022-12-07T03:28:20.314Z,8.90
2022-12-07T03:31:34.762Z,8.77
2022-12-07T03:34:59.020Z,8.40
2022-12-07T03:41:27.066Z,9.18
2022-12-07T03:44:33.638Z,9.20
2022-12-07T03:48:03.915Z,9.15
2022-12-07T03:51:52.358Z,9.20
2022-12-07T03:55:21.517Z,9.88
2022-12-07T03:58:27.001Z,8.75
2022-12-07T04:01:32.988Z,9.63
2022-12-07T04:04:38.080Z,8.75
2022-12-07T04:07:42.943Z,8.93
2022-12-07T04:10:47.969Z,8.85
2022-12-07T04:14:11.097Z,9.00
2022-12-07T04:17:15.580Z,10.38
2022-12-07T04:20:19.819Z,11.10
2022-12-07T04:23:24.668Z,11.15
2022-12-07T04:26:29.475Z,11.68
2022-12-07T04:29:34.336Z,12.00
2022-12-07T04:32:38.644Z,12.38
2022-12-07T04:35:44.324Z,11.63
2022-12-07T04:38:48.578Z,11.77
2022-12-07T04:41:54.112Z,11.13
2022-12-07T04:44:59.280Z,10.35
2022-12-07T04:48:04.221Z,11.45
2022-12-07T04:51:08.825Z,11.85
2022-12-07T04:54:15.701Z,11.30
2022-12-07T04:57:20.080Z,10.98
2022-12-07T05:00:24.794Z,11.13
2022-12-07T05:03:29.341Z,12.40
2022-12-07T05:06:33.898Z,9.82
2022-12-07T05:09:38.210Z,10.98
2022-12-07T05:12:42.484Z,11.20
2022-12-07T05:15:49.536Z,11.13
2022-12-07T05:18:54.002Z,11.55
2022-12-07T05:21:58.850Z,9.77
2022-12-07T05:25:03.685Z,9.93
2022-12-07T05:28:08.449Z,9.48
2022-12-07T05:31:12.769Z,9.50
2022-12-07T05:34:17.140Z,9.90
2022-12-07T05:37:21.736Z,8.77
2022-12-07T05:40:26.322Z,9.05
2022-12-07T05:43:31.820Z,8.20
2022-12-07T05:46:41.717Z,9.30
2022-12-07T05:49:46.792Z,8.18
2022-12-07T05:52:51.919Z,9.45
2022-12-07T05:55:56.537Z,7.90
2022-12-07T05:59:24.533Z,7.68
2022-12-07T06:02:29.182Z,8.40
2022-12-07T06:05:34.096Z,8.55
2022-12-07T06:08:40.019Z,7.90
2022-12-07T06:12:03.356Z,8.40
2022-12-07T06:15:08.599Z,6.25
2022-12-07T06:18:14.218Z,7.55
2022-12-07T09:34:22.543Z,1.60
2022-12-07T09:42:19.459Z,1.73
2022-12-07T09:46:01.582Z,2.00
2022-12-07T09:49:43.304Z,2.08
2022-12-07T09:53:17.754Z,2.70
2022-12-07T10:00:33.888Z,1.88
2022-12-07T10:08:27.084Z,2.25
2022-12-07T10:12:03.953Z,2.85
2022-12-07T10:15:16.376Z,2.75
2022-12-07T10:18:54.191Z,2.60
2022-12-07T10:22:45.245Z,5.15
2022-12-07T10:27:04.507Z,2.80
2022-12-07T10:30:39.980Z,9.00
2022-12-07T10:34:24.584Z,2.53
2022-12-07T10:37:49.950Z,2.50
2022-12-07T10:51:44.579Z,1.67
2022-12-07T10:56:07.120Z,2.20
2022-12-07T10:59:58.255Z,1.30
2022-12-07T11:04:03.241Z,1.95
2022-12-07T11:07:13.709Z,2.00
2022-12-07T11:10:57.165Z,1.20
2022-12-07T11:14:42.319Z,2.08
2022-12-07T11:18:41.252Z,1.30
2022-12-07T11:41:23.217Z,1.27
2022-12-07T11:46:54.361Z,0.85
2022-12-07T11:54:57.156Z,1.52
2022-12-07T17:20:53.429Z,23.77
2022-12-07T17:24:05.231Z,24.83
2022-12-07T17:27:10.229Z,13.95
2022-12-07T17:30:15.914Z,12.05
2022-12-07T17:33:23.091Z,12.65
2022-12-07T17:36:31.224Z,7.45
2022-12-07T17:39:35.829Z,8.25
2022-12-07T17:42:40.782Z,9.68
2022-12-07T17:45:46.752Z,9.73
2022-12-07T17:48:55.298Z,18.13
2022-12-07T17:52:19.006Z,19.45
2022-12-07T17:55:26.706Z,8.05
2022-12-07T17:58:31.970Z,10.55
2022-12-07T18:01:38.005Z,20.60
2022-12-07T18:04:43.162Z,19.02
2022-12-07T18:07:55.660Z,21.00
2022-12-07T18:11:01.707Z,11.27
2022-12-07T18:14:07.147Z,12.70
2022-12-07T18:17:11.641Z,15.30
2022-12-07T18:20:16.218Z,13.40
2022-12-07T18:23:21.121Z,13.55
2022-12-07T18:26:26.534Z,11.00
2022-12-07T18:29:30.986Z,9.95
2022-12-07T18:32:35.301Z,13.18
2022-12-07T18:35:40.012Z,10.75
2022-12-07T18:38:44.926Z,10.27
2022-12-07T18:41:49.196Z,10.82
2022-12-07T18:44:53.544Z,14.77
2022-12-07T18:47:59.060Z,14.77
2022-12-07T18:51:06.752Z,13.25
2022-12-07T18:54:11.567Z,9.90
2022-12-07T18:57:16.059Z,10.63
2022-12-07T19:00:21.051Z,7.35
2022-12-07T19:03:31.383Z,7.47
2022-12-07T19:06:38.398Z,6.50
2022-12-07T19:09:42.934Z,5.93
2022-12-07T19:12:49.164Z,6.35
2022-12-07T19:15:53.898Z,6.75
2022-12-07T19:18:58.536Z,8.60
2022-12-07T19:22:05.113Z,7.38
2022-12-07T19:25:09.832Z,9.10
2022-12-07T19:28:14.306Z,10.30
2022-12-07T19:31:18.832Z,8.52
2022-12-07T19:34:23.713Z,7.78
2022-12-07T19:37:31.337Z,7.70
2022-12-07T19:40:38.390Z,8.13
2022-12-07T19:43:44.243Z,8.50
2022-12-07T19:46:51.020Z,6.10
2022-12-07T19:49:55.896Z,4.70
2022-12-07T19:53:00.523Z,6.90
2022-12-07T19:56:06.577Z,14.73
2022-12-07T19:59:12.988Z,7.57
2022-12-07T20:02:17.591Z,4.85
2022-12-07T20:05:26.545Z,4.95
2022-12-07T20:08:31.450Z,7.10
2022-12-07T20:12:04.402Z,10.07
2022-12-07T20:15:10.038Z,9.48
2022-12-07T20:18:15.062Z,16.90
2022-12-07T20:21:19.595Z,12.98
2022-12-07T20:24:25.773Z,10.80
2022-12-07T20:27:30.258Z,8.50
2022-12-07T20:30:34.854Z,7.93
2022-12-07T20:33:39.488Z,9.15
2022-12-07T20:36:45.203Z,8.20
2022-12-07T20:39:49.736Z,8.43
2022-12-07T20:42:54.044Z,6.95
2022-12-07T20:45:58.768Z,6.05
2022-12-07T20:49:04.002Z,5.45
2022-12-07T20:52:08.989Z,4.90
2022-12-07T20:55:17.785Z,4.72
2022-12-07T20:58:28.395Z,4.72
2022-12-07T21:01:51.209Z,5.78
2022-12-07T21:04:55.958Z,6.18
2022-12-07T21:08:00.612Z,6.47
2022-12-07T21:11:09.223Z,6.93
2022-12-07T21:14:13.891Z,6.00
2022-12-07T21:17:18.214Z,6.05
2022-12-07T21:20:22.962Z,5.60
2022-12-07T21:23:27.368Z,6.60
2022-12-07T21:26:36.150Z,6.95
2022-12-07T21:29:44.375Z,6.53
2022-12-07T21:32:49.344Z,7.80
2022-12-07T21:35:53.683Z,8.88
2022-12-07T21:38:58.714Z,10.15
2022-12-07T21:42:03.270Z,8.50
2022-12-07T21:45:07.778Z,9.38
2022-12-07T21:48:11.986Z,11.90
2022-12-07T21:51:16.712Z,11.70
2022-12-07T21:54:26.663Z,12.32
2022-12-07T21:57:33.852Z,12.82
2022-12-07T22:00:39.858Z,11.45
2022-12-07T22:03:50.912Z,12.90
2022-12-07T22:06:57.492Z,13.90
2022-12-07T22:10:02.046Z,11.90
2022-12-07T22:13:06.820Z,13.02
2022-12-07T22:16:11.172Z,13.02
2022-12-07T22:19:15.423Z,12.60
2022-12-07T22:22:20.176Z,12.65
2022-12-07T22:25:24.859Z,13.68
2022-12-07T22:28:29.222Z,11.77
2022-12-07T22:31:33.967Z,12.63
2022-12-07T22:34:38.446Z,12.40
2022-12-07T22:37:42.714Z,11.07
2022-12-07T22:40:47.318Z,11.57
2022-12-07T22:43:52.285Z,11.13
2022-12-07T22:47:02.980Z,11.85
2022-12-07T22:50:11.895Z,11.63
2022-12-07T22:53:19.442Z,11.65
2022-12-07T22:56:26.652Z,11.48
2022-12-07T22:59:31.321Z,11.60
2022-12-07T23:02:41.675Z,11.27
2022-12-07T23:05:49.483Z,11.18
2022-12-07T23:09:09.824Z,10.88
2022-12-07T23:12:37.764Z,11.23
2022-12-07T23:15:52.965Z,12.38
2022-12-07T23:19:03.016Z,12.00
2022-12-07T23:22:21.255Z,13.00
2022-12-07T23:25:29.840Z,14.27
2022-12-07T23:28:35.485Z,14.10
2022-12-07T23:31:50.492Z,16.17
2022-12-07T23:35:38.657Z,16.05
2022-12-07T23:38:45.928Z,15.77
2022-12-07T23:45:48.727Z,18.20
2022-12-07T23:49:14.971Z,17.60
2022-12-07T23:52:52.407Z,17.63
2022-12-07T23:56:15.584Z,17.40
